createdAt,value
2023-04-16T00:01:51.169Z,28.37
2023-04-16T00:04:40.373Z,27.10
2023-04-16T00:07:28.878Z,28.67
2023-04-16T00:10:17.505Z,28.73
2023-04-16T00:13:05.887Z,27.43
2023-04-16T00:15:54.396Z,27.23
2023-04-16T00:18:44.185Z,27.50
2023-04-16T00:21:32.569Z,27.90
2023-04-16T00:24:20.940Z,29.30
2023-04-16T00:27:09.350Z,28.83
2023-04-16T00:29:57.703Z,27.10
2023-04-16T00:32:46.174Z,26.10
2023-04-16T00:35:36.013Z,27.33
2023-04-16T00:38:24.371Z,28.03
2023-04-16T00:41:12.969Z,28.57
2023-04-16T00:44:01.355Z,30.70
2023-04-16T00:46:50.022Z,28.50
2023-04-16T00:49:38.395Z,29.37
2023-04-16T00:52:28.756Z,28.90
2023-04-16T00:55:18.985Z,27.97
2023-04-16T00:58:07.800Z,29.60
2023-04-16T01:00:56.771Z,29.50
2023-04-16T01:03:47.215Z,29.33
2023-04-16T01:06:36.287Z,29.93
2023-04-16T01:09:26.297Z,28.03
2023-04-16T01:12:14.764Z,28.93
2023-04-16T01:15:03.259Z,32.53
2023-04-16T01:17:52.193Z,30.00
2023-04-16T01:20:41.908Z,29.47
2023-04-16T01:23:30.374Z,28.73
2023-04-16T01:26:18.737Z,28.93
2023-04-16T01:29:07.238Z,29.23
2023-04-16T01:31:55.902Z,31.43
2023-04-16T01:34:49.404Z,30.40
2023-04-16T01:37:39.197Z,29.70
2023-04-16T01:40:27.558Z,32.10
2023-04-16T01:43:16.054Z,29.70
2023-04-16T01:46:15.069Z,28.83
2023-04-16T01:49:03.812Z,29.10
2023-04-16T01:51:53.056Z,29.50
2023-04-16T01:54:42.831Z,28.40
2023-04-16T01:57:31.370Z,27.83
2023-04-16T02:00:19.820Z,28.30
2023-04-16T02:03:08.337Z,29.73
2023-04-16T02:05:56.828Z,30.30
2023-04-16T02:08:45.222Z,30.67
2023-04-16T02:11:36.519Z,30.33
2023-04-16T02:14:25.689Z,29.20
2023-04-16T02:17:15.318Z,29.20
2023-04-16T02:20:07.966Z,29.60
2023-04-16T02:22:58.641Z,30.37
2023-04-16T02:25:48.692Z,30.20
2023-04-16T02:28:39.145Z,29.20
2023-04-16T02:31:28.906Z,29.23
2023-04-16T02:34:18.795Z,30.63
2023-04-16T02:37:07.400Z,30.63
2023-04-16T02:39:56.222Z,29.10
2023-04-16T02:42:44.576Z,29.00
2023-04-16T02:45:34.632Z,29.00
2023-04-16T02:48:23.014Z,29.80
2023-04-16T02:51:11.336Z,29.17
2023-04-16T02:53:59.754Z,31.30
2023-04-16T02:56:48.112Z,29.40
2023-04-16T02:59:36.456Z,29.37
2023-04-16T03:02:26.606Z,29.40
2023-04-16T03:05:15.077Z,28.97
2023-04-16T03:08:04.634Z,30.33
2023-04-16T03:10:53.044Z,30.47
2023-04-16T03:13:41.439Z,29.23
2023-04-16T03:16:29.804Z,31.47
2023-04-16T03:19:19.567Z,30.40
2023-04-16T03:22:07.912Z,29.13
2023-04-16T03:24:56.349Z,30.30
2023-04-16T03:27:45.346Z,30.77
2023-04-16T03:30:34.839Z,29.40
2023-04-16T03:33:23.504Z,30.43
2023-04-16T03:36:15.005Z,30.53
2023-04-16T03:39:03.438Z,30.83
2023-04-16T03:41:52.192Z,29.83
2023-04-16T03:44:40.609Z,29.57
2023-04-16T03:47:30.665Z,29.50
2023-04-16T03:50:22.950Z,29.37
2023-04-16T03:53:12.762Z,30.00
2023-04-16T03:56:01.685Z,31.27
2023-04-16T03:58:51.272Z,30.77
2023-04-16T04:01:40.644Z,29.23
2023-04-16T04:04:29.144Z,30.37
2023-04-16T04:07:19.344Z,29.87
2023-04-16T04:10:10.731Z,31.80
2023-04-16T04:13:02.583Z,30.00
2023-04-16T04:15:51.189Z,30.20
2023-04-16T04:18:39.556Z,30.20
2023-04-16T04:21:28.415Z,30.83
2023-04-16T04:24:16.808Z,30.40
2023-04-16T04:27:06.861Z,29.50
2023-04-16T04:29:55.265Z,30.30
2023-04-16T04:32:44.152Z,33.60
2023-04-16T04:35:32.677Z,30.93
2023-04-16T04:38:22.371Z,30.00
2023-04-16T04:41:11.782Z,28.63
2023-04-16T04:44:02.144Z,31.20
2023-04-16T04:46:50.655Z,30.37
2023-04-16T04:49:41.093Z,31.07
2023-04-16T04:52:29.808Z,30.27
2023-04-16T04:55:18.287Z,29.77
2023-04-16T04:58:07.446Z,28.63
2023-04-16T05:00:57.506Z,28.57
2023-04-16T05:03:45.924Z,29.47
2023-04-16T05:06:34.389Z,28.90
2023-04-16T05:09:22.754Z,29.40
2023-04-16T05:12:11.101Z,29.70
2023-04-16T05:14:59.443Z,30.00
2023-04-16T05:17:49.218Z,29.50
2023-04-16T05:20:38.007Z,31.10
2023-04-16T05:23:26.401Z,29.80
2023-04-16T05:26:14.775Z,28.83
2023-04-16T05:29:03.173Z,30.13
2023-04-16T05:31:51.739Z,30.63
2023-04-16T05:34:41.540Z,29.73
2023-04-16T05:37:29.884Z,29.10
2023-04-16T05:40:18.450Z,28.93
2023-04-16T05:43:06.774Z,28.13
2023-04-16T05:45:55.432Z,29.90
2023-04-16T05:48:43.842Z,29.63
2023-04-16T05:51:33.567Z,28.87
2023-04-16T05:54:21.958Z,29.07
2023-04-16T05:57:10.284Z,30.07
2023-04-16T05:59:58.664Z,30.80
2023-04-16T06:02:47.252Z,28.93
2023-04-16T06:05:35.941Z,27.40
2023-04-16T06:08:25.697Z,28.43
2023-04-16T06:11:14.106Z,28.20
2023-04-16T06:14:02.421Z,30.70
2023-04-16T06:16:51.048Z,27.60
2023-04-16T06:19:39.496Z,26.77
2023-04-16T06:22:27.910Z,25.90
2023-04-16T06:25:18.317Z,27.50
2023-04-16T06:28:07.031Z,27.13
2023-04-16T06:30:55.602Z,25.20
2023-04-16T06:33:43.919Z,26.77
2023-04-16T06:36:32.274Z,27.37
2023-04-16T06:39:21.788Z,23.87
2023-04-16T06:42:11.538Z,27.43
2023-04-16T06:45:00.678Z,28.13
2023-04-16T06:47:49.764Z,26.00
2023-04-16T06:50:38.328Z,25.83
2023-04-16T06:53:26.812Z,27.03
2023-04-16T06:56:15.154Z,26.50
2023-04-16T06:59:04.988Z,24.73
2023-04-16T07:01:53.709Z,24.97
2023-04-16T07:04:42.122Z,26.93
2023-04-16T07:07:31.015Z,28.27
2023-04-16T07:10:19.423Z,25.53
2023-04-16T07:13:07.950Z,26.17
2023-04-16T07:15:57.713Z,26.93
2023-04-16T07:18:46.083Z,25.30
2023-04-16T07:21:34.474Z,22.60
2023-04-16T07:24:22.826Z,27.50
2023-04-16T07:27:11.717Z,23.40
2023-04-16T07:30:00.041Z,28.03
2023-04-16T07:32:49.861Z,24.53
2023-04-16T07:35:38.326Z,24.23
2023-04-16T07:38:26.691Z,25.73
2023-04-16T07:41:16.604Z,22.60
2023-04-16T07:44:05.296Z,23.03
2023-04-16T07:46:53.855Z,25.37
2023-04-16T07:49:44.138Z,23.93
2023-04-16T07:52:32.552Z,25.83
2023-04-16T07:55:21.007Z,23.60
2023-04-16T07:58:09.656Z,22.80
2023-04-16T08:00:58.051Z,23.10
2023-04-16T08:03:46.701Z,21.93
2023-04-16T08:06:36.587Z,21.73
2023-04-16T08:09:27.554Z,20.87
2023-04-16T08:12:16.330Z,21.77
2023-04-16T08:15:05.118Z,19.03
2023-04-16T08:17:54.017Z,20.83
2023-04-16T08:20:42.592Z,20.13
2023-04-16T08:23:32.303Z,19.10
2023-04-16T08:26:20.756Z,20.23
2023-04-16T08:29:09.376Z,18.63
2023-04-16T08:31:58.092Z,19.90
2023-04-16T08:35:11.318Z,21.07
2023-04-16T08:38:02.167Z,19.23
2023-04-16T08:40:52.152Z,18.43
2023-04-16T08:43:44.463Z,18.97
2023-04-16T08:46:33.018Z,20.70
2023-04-16T08:49:21.366Z,18.73
2023-04-16T08:52:11.515Z,20.90
2023-04-16T08:55:06.359Z,18.93
2023-04-16T08:57:59.587Z,20.30
2023-04-16T09:00:48.766Z,18.67
2023-04-16T09:03:37.701Z,19.83
2023-04-16T09:06:26.427Z,18.80
2023-04-16T09:09:16.038Z,17.07
2023-04-16T09:12:04.897Z,19.10
2023-04-16T09:14:54.808Z,17.20
2023-04-16T09:17:43.226Z,19.00
2023-04-16T09:20:31.616Z,16.80
2023-04-16T09:23:20.027Z,19.73
2023-04-16T09:26:08.481Z,16.30
2023-04-16T09:28:56.980Z,19.07
2023-04-16T09:32:03.086Z,17.30
2023-04-16T09:35:01.898Z,17.80
2023-04-16T09:37:57.021Z,19.60
2023-04-16T09:40:47.441Z,18.30
2023-04-16T09:43:36.478Z,17.60
2023-04-16T09:46:25.786Z,19.13
2023-04-16T09:49:17.186Z,17.10
2023-04-16T09:52:10.679Z,17.87
2023-04-16T09:54:59.047Z,16.97
2023-04-16T09:57:48.700Z,17.50
2023-04-16T10:00:43.524Z,18.07
2023-04-16T10:03:32.824Z,17.33
2023-04-16T10:06:25.462Z,19.20
2023-04-16T10:09:13.805Z,19.10
2023-04-16T10:12:02.207Z,18.40
2023-04-16T10:14:50.744Z,18.93
2023-04-16T10:17:39.807Z,18.43
2023-04-16T10:20:28.237Z,18.00
2023-04-16T10:23:18.116Z,19.33
2023-04-16T10:26:06.995Z,18.20
2023-04-16T10:28:56.098Z,19.20
2023-04-16T10:31:44.496Z,18.40
2023-04-16T10:34:33.008Z,18.27
2023-04-16T10:37:21.411Z,18.67
2023-04-16T10:40:25.443Z,18.60
2023-04-16T10:43:18.975Z,18.67
2023-04-16T10:46:21.264Z,17.60
2023-04-16T10:49:17.746Z,18.00
2023-04-16T10:52:12.051Z,18.50
2023-04-16T10:55:00.940Z,17.57
2023-04-16T10:57:53.945Z,18.40
2023-04-16T11:00:50.863Z,17.97
2023-04-16T11:03:42.871Z,17.93
2023-04-16T11:06:32.110Z,17.00
2023-04-16T11:09:48.360Z,18.00
2023-04-16T11:12:38.502Z,18.30
2023-04-16T11:15:30.948Z,17.80
2023-04-16T11:18:20.600Z,18.70
2023-04-16T11:21:13.575Z,18.10
2023-04-16T11:24:01.948Z,18.30
2023-04-16T11:26:52.596Z,20.17
2023-04-16T11:29:41.512Z,18.40
2023-04-16T11:32:34.316Z,18.57
2023-04-16T11:35:22.885Z,18.30
2023-04-16T11:38:11.239Z,18.40
2023-04-16T11:40:59.571Z,19.47
2023-04-16T11:43:47.989Z,18.40
2023-04-16T11:46:40.656Z,18.67
2023-04-16T11:49:31.054Z,19.10
2023-04-16T11:52:29.883Z,18.70
2023-04-16T11:55:18.572Z,18.77
2023-04-16T11:58:12.835Z,18.87
2023-04-16T12:01:01.817Z,18.77
2023-04-16T12:03:51.464Z,18.73
2023-04-16T12:06:41.671Z,19.10
2023-04-16T12:09:30.052Z,19.63
2023-04-16T12:12:30.865Z,18.83
2023-04-16T12:15:19.924Z,18.60
2023-04-16T12:18:09.569Z,18.80
2023-04-16T12:20:58.231Z,18.60
2023-04-16T12:23:47.975Z,19.90
2023-04-16T12:26:41.216Z,18.63
2023-04-16T12:29:29.680Z,18.50
2023-04-16T12:32:24.215Z,18.87
2023-04-16T12:35:13.317Z,18.90
2023-04-16T12:38:03.518Z,18.57
2023-04-16T12:40:56.633Z,18.87
2023-04-16T12:44:12.040Z,18.77
2023-04-16T12:47:00.375Z,18.93
2023-04-16T12:49:48.739Z,18.70
2023-04-16T12:52:37.224Z,18.50
2023-04-16T12:55:25.719Z,18.67
2023-04-16T12:58:15.426Z,18.90
2023-04-16T13:01:03.754Z,18.57
2023-04-16T13:03:52.423Z,18.90
2023-04-16T13:06:42.406Z,18.67
2023-04-16T13:09:30.901Z,18.50
2023-04-16T13:12:19.366Z,18.33
2023-04-16T13:15:10.805Z,18.43
2023-04-16T13:17:59.185Z,17.67
2023-04-16T13:20:47.533Z,18.40
2023-04-16T13:23:36.283Z,18.07
2023-04-16T13:26:24.640Z,18.47
2023-04-16T13:29:12.984Z,18.67
2023-04-16T13:32:02.689Z,18.10
2023-04-16T13:34:51.073Z,18.23
2023-04-16T13:37:39.546Z,18.83
2023-04-16T13:40:27.945Z,18.40
2023-04-16T13:43:18.936Z,18.43
2023-04-16T13:46:07.519Z,18.50
2023-04-16T13:48:57.435Z,18.80
2023-04-16T13:51:45.795Z,18.83
2023-04-16T13:54:34.297Z,18.67
2023-04-16T13:57:22.757Z,19.10
2023-04-16T14:00:13.238Z,17.33
2023-04-16T14:03:01.916Z,18.77
2023-04-16T14:05:51.765Z,18.63
2023-04-16T14:08:40.147Z,18.60
2023-04-16T14:11:28.536Z,19.07
2023-04-16T14:14:16.922Z,18.67
2023-04-16T14:17:05.354Z,18.80
2023-04-16T14:19:53.744Z,18.57
2023-04-16T14:22:44.231Z,18.83
2023-04-16T14:25:32.647Z,18.83
2023-04-16T14:28:21.422Z,19.00
2023-04-16T14:31:09.857Z,19.03
2023-04-16T14:33:58.304Z,18.50
2023-04-16T14:36:46.944Z,18.77
2023-04-16T14:39:39.108Z,18.27
2023-04-16T14:42:27.825Z,18.67
2023-04-16T14:45:16.238Z,18.93
2023-04-16T14:48:05.159Z,18.83
2023-04-16T14:50:54.888Z,19.40
2023-04-16T14:53:43.256Z,18.53
2023-04-16T14:56:33.038Z,18.60
2023-04-16T14:59:21.386Z,18.90
2023-04-16T15:02:10.466Z,19.17
2023-04-16T15:04:58.909Z,19.37
2023-04-16T15:07:47.421Z,19.13
2023-04-16T15:10:36.107Z,18.97
2023-04-16T15:13:25.931Z,18.87
2023-04-16T15:16:14.336Z,19.53
2023-04-16T15:19:05.011Z,19.50
2023-04-16T15:21:53.691Z,19.63
2023-04-16T15:24:42.159Z,19.43
2023-04-16T15:27:30.591Z,19.33
2023-04-16T15:30:20.682Z,19.20
2023-04-16T15:33:09.417Z,19.93
2023-04-16T15:35:57.851Z,19.63
2023-04-16T15:38:46.141Z,19.50
2023-04-16T15:41:36.926Z,19.40
2023-04-16T15:44:25.444Z,19.60
2023-04-16T15:47:15.383Z,19.37
2023-04-16T15:50:03.807Z,19.50
2023-04-16T15:52:52.248Z,19.20
2023-04-16T15:55:40.699Z,19.57
2023-04-16T15:58:29.039Z,19.17
2023-04-16T16:01:18.018Z,18.90
2023-04-16T16:04:08.204Z,19.40
2023-04-16T16:06:57.485Z,19.40
2023-04-16T16:09:47.355Z,19.73
2023-04-16T16:12:35.783Z,19.20
2023-04-16T16:15:24.289Z,19.63
2023-04-16T16:18:12.625Z,19.10
2023-04-16T16:21:02.330Z,19.10
2023-04-16T16:23:50.750Z,20.00
2023-04-16T16:26:39.135Z,19.40
2023-04-16T16:29:27.593Z,19.67
2023-04-16T16:32:16.448Z,19.37
2023-04-16T16:35:05.706Z,19.37
2023-04-16T16:37:57.283Z,19.27
2023-04-16T16:40:45.641Z,19.20
2023-04-16T16:43:34.098Z,19.97
2023-04-16T16:46:22.479Z,19.20
2023-04-16T16:49:11.206Z,19.60
2023-04-16T16:52:00.167Z,20.20
2023-04-16T16:54:50.013Z,20.60
2023-04-16T16:57:38.910Z,23.83
2023-04-16T17:00:27.636Z,19.30
2023-04-16T17:03:17.094Z,19.40
2023-04-16T17:06:06.222Z,19.50
2023-04-16T17:08:54.572Z,18.87
2023-04-16T17:11:44.392Z,18.90
2023-04-16T17:14:33.386Z,19.33
2023-04-16T17:17:21.752Z,18.63
2023-04-16T17:20:12.328Z,18.73
2023-04-16T17:23:00.876Z,18.70
2023-04-16T17:25:49.282Z,19.37
2023-04-16T17:28:39.067Z,19.13
2023-04-16T17:31:27.853Z,19.37
2023-04-16T17:34:19.579Z,18.47
2023-04-16T17:37:08.015Z,21.70
2023-04-16T17:39:56.888Z,18.63
2023-04-16T17:42:46.223Z,18.63
2023-04-16T17:45:36.142Z,18.93
2023-04-16T17:48:24.492Z,19.07
2023-04-16T17:51:13.419Z,19.40
2023-04-16T17:54:03.386Z,18.77
2023-04-16T17:56:51.763Z,18.37
2023-04-16T17:59:40.190Z,18.23
2023-04-16T18:02:30.117Z,18.20
2023-04-16T18:05:19.029Z,18.80
2023-04-16T18:08:07.433Z,17.80
2023-04-16T18:10:56.788Z,17.37
2023-04-16T18:13:45.349Z,18.07
2023-04-16T18:16:33.752Z,18.47
2023-04-16T18:19:23.505Z,17.67
2023-04-16T18:22:13.353Z,18.00
2023-04-16T18:25:01.736Z,17.47
2023-04-16T18:27:50.108Z,18.77
2023-04-16T18:30:40.489Z,17.47
2023-04-16T18:33:52.589Z,19.10
2023-04-16T18:36:38.793Z,17.00
2023-04-16T18:39:27.268Z,18.10
2023-04-16T18:42:15.832Z,17.40
2023-04-16T18:45:05.906Z,18.10
2023-04-16T18:47:54.284Z,17.73
2023-04-16T18:50:42.726Z,17.70
2023-04-16T18:53:32.634Z,17.37
2023-04-16T18:56:21.070Z,17.27
2023-04-16T18:59:09.664Z,17.20
2023-04-16T19:01:58.326Z,17.10
2023-04-16T19:04:46.944Z,18.20
2023-04-16T19:07:36.158Z,18.87
2023-04-16T19:10:25.896Z,18.37
2023-04-16T19:13:14.254Z,17.73
2023-04-16T19:16:04.999Z,18.73
2023-04-16T19:18:53.376Z,18.83
2023-04-16T19:21:41.706Z,17.50
2023-04-16T19:24:30.877Z,19.37
2023-04-16T19:27:21.582Z,21.80
2023-04-16T19:30:10.924Z,17.57
2023-04-16T19:32:59.347Z,18.80
2023-04-16T19:35:48.110Z,17.13
2023-04-16T19:38:36.444Z,17.47
2023-04-16T19:41:24.890Z,17.23
2023-04-16T19:44:14.582Z,18.10
2023-04-16T19:47:02.956Z,17.73
2023-04-16T19:49:54.054Z,18.00
2023-04-16T19:52:42.387Z,20.53
2023-04-16T19:55:30.705Z,18.10
2023-04-16T19:58:19.096Z,17.80
2023-04-16T20:01:11.302Z,18.70
2023-04-16T20:03:59.709Z,17.63
2023-04-16T20:06:48.106Z,18.90
2023-04-16T20:09:36.482Z,18.83
2023-04-16T20:12:24.894Z,20.00
2023-04-16T20:15:13.351Z,18.93
2023-04-16T20:18:03.137Z,18.57
2023-04-16T20:20:51.682Z,19.23
2023-04-16T20:23:40.033Z,19.43
2023-04-16T20:26:33.544Z,18.40
2023-04-16T20:29:21.937Z,21.30
2023-04-16T20:32:10.309Z,21.10
2023-04-16T20:35:00.488Z,19.50
2023-04-16T20:37:48.933Z,19.63
2023-04-16T20:40:38.761Z,19.23
2023-04-16T20:43:29.568Z,21.30
2023-04-16T20:46:18.458Z,19.70
2023-04-16T20:49:08.237Z,19.80
2023-04-16T20:51:57.996Z,20.60
2023-04-16T20:54:47.202Z,22.10
2023-04-16T20:57:35.529Z,21.50
2023-04-16T21:00:24.162Z,21.00
2023-04-16T21:03:12.646Z,20.93
2023-04-16T21:06:01.822Z,20.80
2023-04-16T21:08:51.544Z,22.23
2023-04-16T21:11:39.978Z,22.20
2023-04-16T21:14:28.333Z,23.20
2023-04-16T21:17:16.679Z,24.20
2023-04-16T21:20:06.930Z,23.23
2023-04-16T21:22:56.910Z,23.40
2023-04-16T21:25:46.593Z,23.50
2023-04-16T21:28:34.950Z,24.50
2023-04-16T21:31:23.378Z,24.27
2023-04-16T21:34:11.782Z,24.90
2023-04-16T21:37:00.139Z,24.30
2023-04-16T21:39:48.559Z,23.60
2023-04-16T21:42:39.986Z,24.30
2023-04-16T21:45:30.437Z,24.90
2023-04-16T21:48:18.956Z,25.60
2023-04-16T21:51:08.155Z,25.00
2023-04-16T21:53:56.991Z,25.10
2023-04-16T21:56:45.366Z,24.33
2023-04-16T21:59:35.096Z,23.50
2023-04-16T22:02:23.534Z,26.33
2023-04-16T22:05:12.571Z,24.53
2023-04-16T22:08:05.800Z,23.93
2023-04-16T22:11:00.048Z,25.87
2023-04-16T22:13:49.507Z,26.50
2023-04-16T22:16:40.153Z,24.90
2023-04-16T22:19:28.692Z,24.70
2023-04-16T22:22:17.032Z,25.70
2023-04-16T22:25:06.101Z,27.47
2023-04-16T22:27:54.463Z,27.03
2023-04-16T22:30:42.881Z,28.83
2023-04-16T22:33:32.661Z,30.20
2023-04-16T22:36:21.036Z,25.63
2023-04-16T22:39:09.676Z,27.73
2023-04-16T22:41:58.465Z,27.73
2023-04-16T22:44:46.853Z,26.80
2023-04-16T22:47:35.407Z,26.33
2023-04-16T22:50:25.201Z,27.93
2023-04-16T22:53:13.603Z,29.60
2023-04-16T22:56:01.966Z,28.33
2023-04-16T22:58:50.390Z,27.73
2023-04-16T23:01:38.905Z,28.27
2023-04-16T23:04:27.458Z,28.47
2023-04-16T23:07:17.589Z,30.77
2023-04-16T23:10:08.337Z,28.00
2023-04-16T23:12:56.833Z,27.83
2023-04-16T23:15:47.222Z,29.10
2023-04-16T23:18:36.671Z,28.60
2023-04-16T23:21:25.066Z,28.67
2023-04-16T23:24:14.847Z,29.23
2023-04-16T23:27:03.462Z,28.63
2023-04-16T23:29:51.823Z,29.10
2023-04-16T23:32:40.318Z,28.87
2023-04-16T23:35:28.783Z,28.63
2023-04-16T23:38:17.242Z,28.80
2023-04-16T23:41:06.980Z,30.30
2023-04-16T23:43:55.320Z,28.63
2023-04-16T23:46:43.713Z,29.43
2023-04-16T23:49:32.197Z,30.73
2023-04-16T23:52:20.664Z,30.37
2023-04-16T23:55:09.639Z,29.33
2023-04-16T23:57:59.338Z,31.23
